Time;durP1;ratioP1;P1;durP2;ratioP2;P2;SDS_P1;SDS_P2;PMS_P1;PMS_P2;Temp;Humidity;BMP_temperature;BMP_pressure;BME280_temperature;BME280_humidity;BME280_pressure;Samples;Min_cycle;Max_cycle;Signal;HPM_P1;HPM_P2
2022/05/14 00:00:47;;;;;;;3.97;1.80;;;10.10;99.90;;;;;;5106017;28;20425;-66
2022/05/14 00:03:13;;;;;;;4.30;1.40;;;10.00;99.90;;;;;;5098534;28;20474;-67
2022/05/14 00:05:39;;;;;;;2.63;1.10;;;10.00;99.90;;;;;;5106106;28;21193;-68
2022/05/14 00:08:05;;;;;;;6.03;1.10;;;10.00;99.90;;;;;;5105140;28;20421;-68
2022/05/14 00:10:32;;;;;;;3.87;1.33;;;10.00;99.90;;;;;;5105948;28;20195;-68
2022/05/14 00:13:04;;;;;;;2.00;0.90;;;10.00;99.90;;;;;;5105979;28;20955;-67
2022/05/14 00:15:41;;;;;;;4.43;1.40;;;10.00;99.90;;;;;;5099322;28;20449;-67
2022/05/14 00:18:09;;;;;;;2.63;1.40;;;10.00;99.90;;;;;;5105559;28;21094;-67
2022/05/14 00:20:38;;;;;;;2.53;1.00;;;10.00;99.90;;;;;;5106482;28;20900;-68
2022/05/14 00:23:05;;;;;;;2.30;1.10;;;9.90;99.90;;;;;;5099208;28;20450;-67
2022/05/14 00:25:32;;;;;;;6.07;1.10;;;9.90;99.90;;;;;;5098487;28;20453;-68
2022/05/14 00:27:58;;;;;;;5.90;1.40;;;9.90;99.90;;;;;;5104607;28;21207;-68
2022/05/14 00:30:27;;;;;;;3.73;0.70;;;9.80;99.90;;;;;;5106446;28;20461;-67
2022/05/14 00:32:54;;;;;;;1.57;0.90;;;9.80;99.90;;;;;;5104924;28;20188;-67
2022/05/14 00:35:20;;;;;;;16.60;1.43;;;9.70;99.90;;;;;;5106082;28;20536;-68
2022/05/14 00:37:46;;;;;;;1.83;1.10;;;9.70;99.90;;;;;;5103160;28;20457;-67
2022/05/14 00:40:35;;;;;;;4.30;1.20;;;9.80;99.90;;;;;;5107704;28;20471;-68
2022/05/14 00:43:01;;;;;;;2.03;1.00;;;9.70;99.90;;;;;;5100541;28;20426;-67
2022/05/14 00:45:28;;;;;;;2.67;1.10;;;9.70;99.90;;;;;;5109933;28;20480;-67
2022/05/14 00:47:58;;;;;;;4.47;1.50;;;9.60;99.90;;;;;;5108856;28;20435;-68
2022/05/14 00:50:40;;;;;;;9.60;1.77;;;9.60;99.90;;;;;;5110130;28;20440;-68
2022/05/14 00:53:10;;;;;;;2.13;0.87;;;9.60;99.90;;;;;;5090269;28;20437;-70
2022/05/14 00:55:38;;;;;;;3.50;1.00;;;9.60;99.90;;;;;;5109806;28;20456;-67
2022/05/14 00:58:05;;;;;;;4.90;1.10;;;9.50;99.90;;;;;;5106247;28;20536;-68
2022/05/14 01:00:32;;;;;;;3.13;1.20;;;9.50;99.90;;;;;;5109652;28;20877;-68
2022/05/14 01:02:57;;;;;;;2.27;0.87;;;9.50;99.90;;;;;;5102614;28;20427;-67
2022/05/14 01:05:24;;;;;;;2.50;1.13;;;9.50;99.90;;;;;;5109934;28;20868;-67
2022/05/14 01:07:52;;;;;;;3.00;1.33;;;9.50;99.90;;;;;;5108415;28;20190;-69
2022/05/14 01:10:21;;;;;;;1.97;0.90;;;9.40;99.90;;;;;;5109687;28;20422;-69
2022/05/14 01:12:52;;;;;;;2.37;1.00;;;9.40;99.90;;;;;;5107398;28;20440;-67
2022/05/14 01:15:24;;;;;;;3.03;1.30;;;9.40;99.90;;;;;;5109616;28;20449;-66
2022/05/14 01:17:51;;;;;;;2.87;0.87;;;9.30;99.90;;;;;;5100395;28;20612;-68
2022/05/14 01:20:18;;;;;;;3.27;1.40;;;9.30;99.90;;;;;;5107743;28;20834;-67
2022/05/14 01:23:05;;;;;;;4.70;1.37;;;9.30;99.90;;;;;;5104263;28;20570;-67
2022/05/14 01:28:24;;;;;;;5.80;1.30;;;9.30;99.90;;;;;;5106077;28;20479;-69
2022/05/14 01:30:58;;;;;;;2.77;1.00;;;9.20;99.90;;;;;;5103660;28;20428;-66
2022/05/14 01:33:24;;;;;;;3.00;0.87;;;9.20;99.90;;;;;;5107927;28;20281;-64
2022/05/14 01:35:50;;;;;;;4.10;1.53;;;9.10;99.90;;;;;;5109365;28;20780;-67
2022/05/14 01:38:18;;;;;;;3.10;1.13;;;9.00;99.90;;;;;;5108755;28;21038;-67
2022/05/14 01:40:43;;;;;;;3.10;1.00;;;9.00;99.90;;;;;;5109340;28;21072;-68
2022/05/14 01:43:09;;;;;;;1.70;0.90;;;9.00;99.90;;;;;;5087955;28;20537;-67
2022/05/14 01:45:35;;;;;;;2.30;0.87;;;9.00;99.90;;;;;;5109322;28;20206;-67
2022/05/14 01:48:01;;;;;;;9.10;1.40;;;9.00;99.90;;;;;;5108309;28;20310;-67
2022/05/14 01:50:26;;;;;;;2.70;1.10;;;9.00;99.90;;;;;;5097268;28;20183;-67
2022/05/14 01:52:52;;;;;;;2.23;1.10;;;9.00;99.90;;;;;;5107724;28;20216;-68
2022/05/14 01:55:18;;;;;;;3.40;1.50;;;8.90;99.90;;;;;;5102129;28;20359;-68
2022/05/14 01:57:44;;;;;;;2.10;1.13;;;8.80;99.90;;;;;;5070801;28;20859;-66
2022/05/14 02:00:12;;;;;;;2.73;1.13;;;8.80;99.90;;;;;;5087105;28;20580;-68
2022/05/14 02:02:38;;;;;;;4.93;1.33;;;8.80;99.90;;;;;;5104703;28;21137;-66
2022/05/14 02:05:04;;;;;;;4.70;1.90;;;8.80;99.90;;;;;;5096050;28;20529;-68
2022/05/14 02:07:30;;;;;;;3.50;1.97;;;8.80;99.90;;;;;;5109294;28;20184;-68
2022/05/14 02:09:55;;;;;;;4.60;1.10;;;8.80;99.90;;;;;;5108441;28;20893;-67
2022/05/14 02:12:21;;;;;;;3.00;1.30;;;8.80;99.90;;;;;;5104712;28;20700;-68
2022/05/14 02:14:47;;;;;;;12.47;1.93;;;8.70;99.90;;;;;;5105401;28;20298;-67
2022/05/14 02:17:13;;;;;;;9.30;1.70;;;8.70;99.90;;;;;;5109976;28;20716;-68
2022/05/14 02:19:39;;;;;;;2.60;1.23;;;8.70;99.90;;;;;;5108309;28;20219;-67
2022/05/14 02:22:05;;;;;;;3.40;1.07;;;8.70;99.90;;;;;;5106657;28;20844;-68
2022/05/14 02:24:32;;;;;;;3.87;1.23;;;8.70;99.90;;;;;;5099173;28;20711;-67
2022/05/14 02:26:58;;;;;;;4.97;1.20;;;8.70;99.90;;;;;;5107165;28;20432;-67
2022/05/14 02:29:24;;;;;;;2.63;1.13;;;8.70;99.90;;;;;;5099991;28;20434;-68
2022/05/14 02:31:51;;;;;;;4.50;1.40;;;8.70;99.90;;;;;;5106565;28;20427;-69
2022/05/14 02:34:17;;;;;;;3.53;1.20;;;8.70;99.90;;;;;;5104105;28;20437;-67
2022/05/14 02:36:43;;;;;;;2.80;1.17;;;8.60;99.90;;;;;;5089475;28;20991;-67
2022/05/14 02:39:09;;;;;;;5.23;1.20;;;8.60;99.90;;;;;;5107361;28;20473;-67
2022/05/14 02:41:34;;;;;;;1.87;1.07;;;8.50;99.90;;;;;;5107644;28;20465;-65
2022/05/14 02:44:00;;;;;;;4.47;1.30;;;8.50;99.90;;;;;;5094002;28;20438;-68
2022/05/14 02:46:26;;;;;;;7.33;1.50;;;8.50;99.90;;;;;;5101437;28;20702;-67
2022/05/14 02:48:51;;;;;;;3.73;1.47;;;8.50;99.90;;;;;;5100504;28;20192;-67
2022/05/14 02:51:17;;;;;;;2.37;1.10;;;8.50;99.90;;;;;;5101248;28;20199;-67
2022/05/14 02:53:43;;;;;;;2.53;0.80;;;8.40;99.90;;;;;;5106763;28;20202;-67
2022/05/14 02:56:08;;;;;;;4.40;0.90;;;8.40;99.90;;;;;;5107696;28;20215;-69
2022/05/14 03:01:19;;;;;;;4.23;1.20;;;8.30;99.90;;;;;;5089164;28;20670;-66
2022/05/14 03:03:45;;;;;;;2.77;1.43;;;8.40;99.90;;;;;;5100837;28;20433;-67
2022/05/14 03:06:11;;;;;;;4.70;1.33;;;8.30;99.90;;;;;;5107260;28;20430;-67
2022/05/14 03:08:37;;;;;;;4.53;1.27;;;8.40;99.90;;;;;;5098238;28;20615;-68
2022/05/14 03:11:03;;;;;;;4.60;1.47;;;8.40;99.90;;;;;;5106951;28;20245;-70
2022/05/14 03:13:30;;;;;;;1.90;0.80;;;8.40;99.90;;;;;;5105849;28;20429;-67
2022/05/14 03:15:56;;;;;;;3.27;1.23;;;8.30;99.90;;;;;;5105551;28;20215;-67
2022/05/14 03:18:22;;;;;;;4.53;1.90;;;8.20;99.90;;;;;;5107266;28;20465;-67
2022/05/14 03:20:47;;;;;;;3.13;1.33;;;8.20;99.90;;;;;;5105765;28;20178;-69
2022/05/14 03:23:13;;;;;;;2.00;1.23;;;8.20;99.90;;;;;;5106896;28;20191;-67
2022/05/14 03:25:39;;;;;;;2.27;1.43;;;8.20;99.90;;;;;;5103391;28;20203;-66
2022/05/14 03:28:05;;;;;;;3.27;1.40;;;8.20;99.90;;;;;;5107034;28;20560;-67
2022/05/14 03:30:30;;;;;;;1.77;1.03;;;8.20;99.90;;;;;;5104852;28;20221;-67
2022/05/14 03:32:56;;;;;;;2.73;1.23;;;8.20;99.90;;;;;;5105560;28;20190;-69
2022/05/14 03:35:21;;;;;;;2.40;1.60;;;8.10;99.90;;;;;;5105259;28;20685;-67
2022/05/14 03:37:47;;;;;;;3.17;1.40;;;8.10;99.90;;;;;;5105897;28;20215;-67
2022/05/14 03:40:13;;;;;;;4.73;2.00;;;8.00;99.90;;;;;;5096295;28;20211;-66
2022/05/14 03:42:39;;;;;;;2.17;1.10;;;8.10;99.90;;;;;;5102452;28;20482;-67
2022/05/14 03:45:05;;;;;;;8.53;1.90;;;8.10;99.90;;;;;;5093367;28;20751;-69
2022/05/14 03:47:31;;;;;;;2.17;0.90;;;8.00;99.90;;;;;;5106793;28;20223;-67
2022/05/14 03:49:56;;;;;;;6.90;1.60;;;8.10;99.90;;;;;;5106307;28;20821;-69
2022/05/14 03:52:22;;;;;;;2.33;1.30;;;8.10;99.90;;;;;;5097676;28;20274;-66
2022/05/14 03:54:48;;;;;;;2.87;1.60;;;8.00;99.90;;;;;;5106257;28;20180;-68
2022/05/14 03:57:14;;;;;;;2.00;1.40;;;8.00;99.90;;;;;;5106536;28;20229;-67
2022/05/14 03:59:40;;;;;;;2.50;1.47;;;8.00;99.90;;;;;;5103226;28;20642;-65
2022/05/14 04:02:06;;;;;;;4.47;2.03;;;8.00;99.90;;;;;;5097886;28;20465;-67
2022/05/14 04:04:32;;;;;;;2.10;1.50;;;8.00;99.90;;;;;;5106520;28;20203;-67
2022/05/14 04:06:58;;;;;;;7.30;2.00;;;7.90;99.90;;;;;;5096940;28;20470;-66
2022/05/14 04:09:25;;;;;;;3.17;1.40;;;8.00;99.90;;;;;;5106188;28;20486;-68
2022/05/14 04:11:51;;;;;;;3.17;1.30;;;8.00;99.90;;;;;;5104425;28;20429;-67
2022/05/14 04:14:17;;;;;;;8.63;1.60;;;8.00;99.90;;;;;;5107955;28;20425;-67
2022/05/14 04:16:44;;;;;;;3.50;1.50;;;8.00;99.90;;;;;;5111522;28;20475;-67
2022/05/14 04:19:09;;;;;;;4.13;1.40;;;8.00;99.90;;;;;;5113464;28;20464;-68
2022/05/14 04:21:36;;;;;;;3.20;1.60;;;8.00;99.90;;;;;;5107921;28;20470;-66
2022/05/14 04:24:02;;;;;;;3.07;1.73;;;8.00;99.90;;;;;;5113200;28;20199;-66
2022/05/14 04:26:27;;;;;;;4.30;1.20;;;8.00;99.90;;;;;;5107156;28;20487;-67
2022/05/14 04:28:53;;;;;;;3.50;1.20;;;8.00;99.90;;;;;;5112999;28;20183;-67
2022/05/14 04:31:21;;;;;;;6.10;1.53;;;8.10;99.90;;;;;;5102162;28;20752;-67
2022/05/14 04:33:47;;;;;;;2.43;1.27;;;8.20;99.90;;;;;;5112588;28;20217;-69
2022/05/14 04:36:13;;;;;;;3.20;1.57;;;8.20;99.90;;;;;;5109413;28;20998;-67
2022/05/14 04:38:39;;;;;;;3.60;1.83;;;8.20;99.90;;;;;;5112928;28;20457;-66
2022/05/14 04:41:04;;;;;;;2.50;1.30;;;8.30;99.90;;;;;;5112002;28;20437;-67
2022/05/14 04:43:31;;;;;;;5.33;2.40;;;8.30;99.90;;;;;;5113169;28;20167;-68
2022/05/14 04:45:57;;;;;;;2.60;1.30;;;8.40;99.90;;;;;;5106313;28;20565;-67
2022/05/14 04:48:23;;;;;;;2.20;1.50;;;8.40;99.90;;;;;;5113130;28;20652;-69
2022/05/14 04:50:49;;;;;;;2.47;1.40;;;8.40;99.90;;;;;;5091414;28;21317;-67
2022/05/14 04:53:15;;;;;;;3.70;1.30;;;8.40;99.90;;;;;;5103349;28;20413;-67
2022/05/14 04:55:41;;;;;;;2.20;1.20;;;8.50;99.90;;;;;;5111931;28;20622;-67
2022/05/14 04:58:08;;;;;;;3.70;1.80;;;8.50;99.90;;;;;;5112546;28;20522;-67
2022/05/14 05:00:34;;;;;;;7.03;1.60;;;8.50;99.90;;;;;;5109567;28;20429;-67
2022/05/14 05:03:19;;;;;;;3.77;1.60;;;8.60;99.90;;;;;;5110746;28;20431;-68
2022/05/14 05:06:14;;;;;;;8.17;1.83;;;8.60;99.90;;;;;;5111450;28;20556;-67
2022/05/14 05:08:40;;;;;;;2.60;1.40;;;8.80;99.90;;;;;;5092846;28;20461;-67
2022/05/14 05:11:06;;;;;;;3.60;1.20;;;8.80;99.90;;;;;;5108017;28;20540;-67
2022/05/14 05:13:32;;;;;;;4.47;1.57;;;8.90;99.90;;;;;;5106041;28;20417;-67
2022/05/14 05:15:58;;;;;;;4.73;1.87;;;8.90;99.90;;;;;;5109595;28;20206;-69
2022/05/14 05:18:24;;;;;;;3.03;1.20;;;9.00;99.90;;;;;;5112736;28;20469;-67
2022/05/14 05:20:52;;;;;;;1.90;1.20;;;9.00;99.90;;;;;;5099504;28;20189;-67
2022/05/14 05:23:20;;;;;;;5.93;1.30;;;9.10;99.90;;;;;;5112653;28;20303;-66
2022/05/14 05:25:46;;;;;;;7.80;1.43;;;9.20;99.90;;;;;;5106058;28;20465;-66
2022/05/14 05:28:12;;;;;;;3.60;1.37;;;9.20;99.90;;;;;;5109416;28;20421;-67
2022/05/14 05:30:39;;;;;;;3.20;1.47;;;9.30;99.90;;;;;;5106921;28;20523;-67
2022/05/14 05:33:14;;;;;;;2.10;0.90;;;9.40;99.90;;;;;;5099918;28;20188;-67
2022/05/14 05:35:40;;;;;;;4.50;1.67;;;9.50;99.90;;;;;;5098373;28;20453;-68
2022/05/14 05:38:06;;;;;;;2.77;1.57;;;9.60;99.90;;;;;;5105170;28;20511;-67
2022/05/14 05:40:31;;;;;;;3.50;1.50;;;9.80;99.90;;;;;;5109267;28;20180;-67
2022/05/14 05:42:57;;;;;;;5.90;1.63;;;9.90;99.90;;;;;;5097636;28;20383;-68
2022/05/14 05:45:23;;;;;;;2.13;1.20;;;10.00;99.90;;;;;;5117471;27;20749;-68
2022/05/14 05:47:48;;;;;;;2.17;1.37;;;10.10;99.90;;;;;;5073402;28;20407;-66
2022/05/14 05:50:14;;;;;;;4.57;2.10;;;10.20;99.90;;;;;;5099960;28;20200;-67
2022/05/14 05:52:40;;;;;;;2.60;1.43;;;10.30;99.90;;;;;;5076795;28;20199;-68
2022/05/14 05:57:51;;;;;;;1.97;1.07;;;10.50;99.90;;;;;;5094760;28;21099;-68
2022/05/14 06:00:20;;;;;;;2.57;1.43;;;10.60;99.90;;;;;;5106255;28;20426;-67
2022/05/14 06:02:46;;;;;;;2.70;1.20;;;10.70;99.90;;;;;;5108504;28;20188;-67
2022/05/14 06:05:13;;;;;;;4.07;1.80;;;10.90;99.90;;;;;;5106254;28;20496;-70
2022/05/14 06:07:39;;;;;;;2.47;1.37;;;11.00;99.90;;;;;;5097478;28;20449;-68
2022/05/14 06:10:07;;;;;;;1.87;0.90;;;11.20;99.90;;;;;;5108664;28;20421;-67
2022/05/14 06:12:34;;;;;;;4.97;1.70;;;11.40;99.90;;;;;;5107240;28;20855;-67
2022/05/14 06:15:00;;;;;;;2.60;1.47;;;11.50;99.90;;;;;;5108832;28;20438;-67
2022/05/14 06:17:26;;;;;;;2.23;1.43;;;11.60;99.90;;;;;;5107069;28;20429;-65
2022/05/14 06:19:51;;;;;;;2.70;1.53;;;11.70;99.90;;;;;;5104402;28;20437;-68
2022/05/14 06:22:17;;;;;;;2.23;1.20;;;11.80;99.90;;;;;;5104237;28;20188;-67
2022/05/14 06:24:43;;;;;;;2.47;1.43;;;11.90;99.90;;;;;;5105360;28;20190;-67
2022/05/14 06:27:09;;;;;;;2.50;1.17;;;12.10;99.90;;;;;;5097862;28;20180;-67
2022/05/14 06:29:34;;;;;;;5.20;1.50;;;12.20;99.90;;;;;;5091944;28;20180;-66
2022/05/14 06:32:00;;;;;;;3.40;1.20;;;12.30;99.90;;;;;;5098357;28;20176;-67
2022/05/14 06:34:26;;;;;;;3.10;1.10;;;12.40;99.90;;;;;;5097465;28;20218;-68
2022/05/14 06:36:52;;;;;;;2.87;1.33;;;12.50;99.90;;;;;;5097842;28;20474;-70
2022/05/14 06:39:19;;;;;;;5.53;2.13;;;12.70;99.90;;;;;;5102998;28;20207;-69
2022/05/14 06:41:45;;;;;;;3.67;1.03;;;12.90;99.90;;;;;;5107717;28;20461;-68
2022/05/14 06:44:10;;;;;;;2.30;1.10;;;13.10;99.90;;;;;;5107006;28;20472;-69
2022/05/14 06:46:36;;;;;;;3.10;0.83;;;13.20;99.90;;;;;;5107523;28;20235;-68
2022/05/14 06:49:03;;;;;;;2.13;1.00;;;13.40;99.90;;;;;;5107426;28;20223;-68
2022/05/14 06:51:31;;;;;;;6.73;1.60;;;13.60;99.90;;;;;;5101167;28;20192;-67
2022/05/14 06:54:05;;;;;;;2.03;1.03;;;13.80;99.90;;;;;;5089706;28;20425;-69
2022/05/14 06:56:34;;;;;;;2.20;0.90;;;14.10;98.30;;;;;;5108181;28;20807;-68
2022/05/14 06:59:00;;;;;;;6.10;1.67;;;14.40;97.50;;;;;;5099197;28;20474;-69
2022/05/14 07:01:28;;;;;;;1.60;0.70;;;14.60;96.00;;;;;;5096649;28;20459;-69
2022/05/14 07:06:43;;;;;;;5.60;0.97;;;14.90;95.30;;;;;;5106699;28;20569;-70
2022/05/14 07:09:14;;;;;;;8.73;1.47;;;15.20;96.60;;;;;;5106676;28;21086;-69
2022/05/14 07:11:41;;;;;;;2.90;1.13;;;15.50;96.50;;;;;;5089033;28;20202;-68
2022/05/14 07:14:09;;;;;;;3.03;1.30;;;15.70;94.90;;;;;;5102203;28;20432;-69
2022/05/14 07:16:35;;;;;;;3.50;0.80;;;16.00;94.90;;;;;;5106285;28;20805;-69
2022/05/14 07:19:00;;;;;;;1.73;0.70;;;16.40;93.90;;;;;;5107745;28;20468;-69
2022/05/14 07:21:26;;;;;;;5.33;0.70;;;17.00;91.20;;;;;;5108170;28;20271;-68
2022/05/14 07:23:53;;;;;;;3.10;0.87;;;17.40;90.60;;;;;;5085895;28;20196;-69
2022/05/14 07:26:18;;;;;;;2.70;0.60;;;17.90;86.60;;;;;;5104659;28;20690;-68
2022/05/14 07:28:44;;;;;;;1.40;0.50;;;18.40;83.10;;;;;;5100531;28;20461;-69
2022/05/14 07:31:09;;;;;;;6.23;0.90;;;18.80;85.10;;;;;;5106912;28;20184;-69
2022/05/14 07:33:36;;;;;;;7.90;0.80;;;19.90;80.70;;;;;;5106724;28;20716;-69
2022/05/14 07:36:07;;;;;;;3.13;0.73;;;21.30;74.10;;;;;;5106447;28;20634;-67
2022/05/14 07:38:35;;;;;;;2.60;0.80;;;22.20;73.10;;;;;;5105034;28;20471;-69
2022/05/14 07:41:02;;;;;;;1.93;0.70;;;22.80;71.60;;;;;;5106920;28;20432;-69
2022/05/14 07:43:30;;;;;;;2.07;0.70;;;23.00;69.70;;;;;;5106780;28;20198;-69
2022/05/14 07:46:02;;;;;;;2.45;0.70;;;23.60;68.90;;;;;;5106845;28;20199;-66
2022/05/14 07:48:33;;;;;;;2.58;0.90;;;25.20;64.60;;;;;;5106445;28;20185;-67
2022/05/14 07:51:01;;;;;;;2.33;0.73;;;25.20;63.60;;;;;;5105242;28;20222;-68
2022/05/14 07:53:30;;;;;;;1.70;0.70;;;25.40;63.70;;;;;;5106792;28;20199;-69
2022/05/14 07:55:57;;;;;;;21.27;1.73;;;26.60;58.40;;;;;;5106900;28;20226;-68
2022/05/14 07:58:24;;;;;;;15.25;1.10;;;26.70;59.20;;;;;;5108054;28;20661;-67
2022/05/14 08:00:50;;;;;;;2.15;0.73;;;26.50;59.60;;;;;;5105275;28;20255;-68
2022/05/14 08:03:16;;;;;;;1.90;0.70;;;26.20;57.20;;;;;;5099359;28;20658;-68
2022/05/14 08:05:42;;;;;;;2.13;0.98;;;26.30;60.80;;;;;;5107438;28;20303;-68
2022/05/14 08:08:08;;;;;;;3.50;1.10;;;26.70;58.00;;;;;;5107641;28;20613;-67
2022/05/14 08:10:34;;;;;;;2.70;1.08;;;27.30;56.50;;;;;;5107378;28;20187;-67
2022/05/14 08:13:00;;;;;;;1.95;1.00;;;26.80;55.60;;;;;;5106618;28;20174;-68
2022/05/14 08:15:27;;;;;;;1.98;0.80;;;26.30;57.60;;;;;;5106535;28;20426;-68
2022/05/14 08:17:53;;;;;;;2.35;1.02;;;26.10;58.00;;;;;;5108244;28;20709;-66
2022/05/14 08:20:20;;;;;;;2.88;1.30;;;26.10;57.80;;;;;;5107590;28;20216;-68
2022/05/14 08:25:30;;;;;;;3.28;1.20;;;25.40;56.70;;;;;;5099767;28;20245;-68
2022/05/14 08:27:57;;;;;;;6.90;1.00;;;25.60;56.90;;;;;;5106426;28;20210;-68
2022/05/14 08:30:29;;;;;;;7.25;0.98;;;25.30;57.30;;;;;;5106855;28;20235;-66
2022/05/14 08:32:55;;;;;;;18.05;2.28;;;24.80;57.80;;;;;;5106671;28;20708;-69
2022/05/14 08:35:21;;;;;;;4.13;1.05;;;24.40;59.80;;;;;;5104299;28;20242;-68
2022/05/14 08:37:49;;;;;;;2.05;0.90;;;24.40;59.50;;;;;;5106505;28;20566;-69
2022/05/14 08:40:19;;;;;;;2.90;0.68;;;24.60;58.40;;;;;;5106712;28;20187;-68
2022/05/14 08:42:51;;;;;;;3.38;1.13;;;24.70;58.70;;;;;;5088538;28;20558;-68
2022/05/14 08:45:19;;;;;;;4.13;0.85;;;24.80;58.50;;;;;;5107264;28;20202;-68
2022/05/14 08:47:54;;;;;;;2.13;0.88;;;25.20;58.00;;;;;;5106401;28;20179;-68
2022/05/14 08:50:26;;;;;;;2.63;0.80;;;24.80;58.40;;;;;;5107274;28;20186;-68
2022/05/14 08:52:55;;;;;;;3.47;1.27;;;25.00;57.80;;;;;;5098309;28;20199;-69
2022/05/14 08:55:21;;;;;;;4.72;1.15;;;24.50;60.00;;;;;;5106271;28;20696;-69
2022/05/14 08:58:01;;;;;;;1.67;0.70;;;24.80;58.60;;;;;;5101795;28;20188;-68
2022/05/14 09:00:27;;;;;;;3.22;0.80;;;24.90;58.20;;;;;;5101229;28;20315;-68
2022/05/14 09:02:54;;;;;;;22.02;1.45;;;24.30;60.80;;;;;;5095403;28;20205;-68
2022/05/14 09:05:27;;;;;;;3.92;1.20;;;24.40;61.20;;;;;;5103909;28;20720;-68
2022/05/14 09:07:53;;;;;;;2.30;1.00;;;24.50;59.90;;;;;;5106838;28;20187;-69
2022/05/14 09:10:53;;;;;;;2.22;0.90;;;24.60;59.20;;;;;;5110731;28;20223;-69
2022/05/14 09:13:22;;;;;;;7.65;1.25;;;24.40;61.00;;;;;;5099471;28;20513;-70
2022/05/14 09:15:57;;;;;;;2.83;0.93;;;24.40;60.50;;;;;;5106374;28;20210;-68
2022/05/14 09:18:44;;;;;;;8.82;1.60;;;24.10;62.30;;;;;;5102126;28;20224;-69
2022/05/14 09:21:21;;;;;;;2.00;0.87;;;24.20;61.70;;;;;;5107490;28;20191;-70
2022/05/14 09:23:58;;;;;;;5.77;1.50;;;23.60;64.60;;;;;;5109954;28;20649;-70
2022/05/14 09:26:37;;;;;;;2.58;1.05;;;23.60;63.10;;;;;;5104507;28;20526;-71
2022/05/14 09:29:21;;;;;;;2.67;1.13;;;23.80;62.70;;;;;;5110518;28;20324;-68
2022/05/14 09:31:54;;;;;;;3.10;1.07;;;23.70;62.60;;;;;;5107295;28;20218;-68
2022/05/14 09:34:21;;;;;;;1.57;0.77;;;23.70;66.50;;;;;;5102610;28;20266;-68
2022/05/14 09:36:51;;;;;;;6.70;1.47;;;23.60;63.10;;;;;;5108587;28;20199;-68
2022/05/14 09:39:19;;;;;;;6.55;1.05;;;23.80;63.20;;;;;;5103894;28;20316;-68
2022/05/14 09:41:57;;;;;;;2.22;0.70;;;23.90;62.70;;;;;;5110683;28;20210;-68
2022/05/14 09:44:50;;;;;;;2.83;0.93;;;23.70;60.20;;;;;;5110062;28;20274;-68
2022/05/14 09:47:28;;;;;;;2.37;1.00;;;23.40;61.70;;;;;;5101278;28;20248;-68
2022/05/14 09:50:07;;;;;;;16.10;1.40;;;23.30;62.90;;;;;;5107352;28;20373;-67
2022/05/14 09:52:35;;;;;;;2.37;0.90;;;23.40;60.30;;;;;;5106718;28;20218;-67
2022/05/14 09:55:08;;;;;;;3.67;1.20;;;23.30;63.70;;;;;;5108485;28;20195;-68
2022/05/14 09:57:33;;;;;;;5.57;0.90;;;23.30;61.60;;;;;;5105818;28;20251;-67
2022/05/14 10:00:26;;;;;;;4.70;1.00;;;23.60;60.10;;;;;;5098895;28;20187;-69
2022/05/14 10:03:48;;;;;;;2.63;1.10;;;23.70;61.00;;;;;;5099765;28;20623;-68
2022/05/14 10:06:43;;;;;;;5.43;1.03;;;23.60;62.80;;;;;;5006087;28;20674;-69
2022/05/14 10:09:32;;;;;;;4.77;1.30;;;23.50;61.20;;;;;;5006319;28;20216;-67
2022/05/14 10:12:23;;;;;;;5.20;1.10;;;23.30;59.30;;;;;;5092642;28;20339;-67
2022/05/14 10:15:03;;;;;;;2.90;0.90;;;23.20;61.80;;;;;;5109527;28;20457;-68
2022/05/14 10:17:42;;;;;;;3.77;1.57;;;22.80;62.20;;;;;;5102280;28;20520;-68
2022/05/14 10:20:33;;;;;;;2.27;1.13;;;22.80;62.90;;;;;;5100748;28;20464;-68
2022/05/14 10:29:21;;;;;;;2.70;0.93;;;22.60;60.70;;;;;;5106794;28;20463;-67
2022/05/14 10:31:52;;;;;;;1.60;0.80;;;22.60;61.00;;;;;;5103054;28;20452;-68
2022/05/14 10:34:24;;;;;;;3.13;0.70;;;22.50;64.50;;;;;;5099735;28;20498;-68
2022/05/14 10:36:54;;;;;;;1.77;0.80;;;22.50;61.80;;;;;;5104434;28;20497;-68
2022/05/14 10:39:48;;;;;;;14.40;1.27;;;22.40;66.00;;;;;;5106189;28;20545;-68
2022/05/14 10:42:25;;;;;;;3.20;1.10;;;22.50;61.40;;;;;;5091375;28;20872;-68
2022/05/14 10:44:55;;;;;;;1.93;0.63;;;22.50;65.10;;;;;;5097270;28;20477;-67
2022/05/14 10:47:23;;;;;;;2.60;0.87;;;22.40;64.70;;;;;;5097817;28;20849;-67
2022/05/14 10:49:57;;;;;;;11.57;0.90;;;22.50;61.80;;;;;;5099172;28;20496;-67
2022/05/14 10:52:23;;;;;;;1.87;0.93;;;22.20;62.90;;;;;;5085807;28;20481;-68
2022/05/14 10:54:49;;;;;;;1.97;0.90;;;22.40;66.30;;;;;;5100887;28;20445;-68
2022/05/14 10:57:14;;;;;;;1.80;0.70;;;22.60;63.30;;;;;;5108573;28;20709;-67
2022/05/14 10:59:45;;;;;;;5.23;1.23;;;22.80;65.50;;;;;;5108247;28;20753;-67
2022/05/14 11:02:25;;;;;;;2.70;0.93;;;22.70;64.40;;;;;;5107862;28;20266;-67
2022/05/14 11:04:52;;;;;;;4.93;1.20;;;22.70;66.00;;;;;;5107875;28;20451;-67
2022/05/14 11:07:35;;;;;;;10.03;0.97;;;22.90;60.70;;;;;;5107873;28;20904;-68
2022/05/14 11:10:12;;;;;;;4.47;1.10;;;22.90;62.00;;;;;;5107727;28;21102;-68
2022/05/14 11:12:39;;;;;;;1.60;0.70;;;23.00;63.30;;;;;;5107735;28;20530;-67
2022/05/14 11:15:25;;;;;;;11.00;0.93;;;23.00;62.50;;;;;;5107474;28;20452;-68
2022/05/14 11:18:05;;;;;;;19.83;0.80;;;23.10;63.80;;;;;;5107664;28;20470;-67
2022/05/14 11:20:30;;;;;;;2.90;0.80;;;23.00;60.20;;;;;;5107950;28;20458;-67
2022/05/14 11:23:12;;;;;;;2.93;1.10;;;23.20;60.30;;;;;;5107299;28;20814;-67
2022/05/14 11:25:38;;;;;;;1.80;0.93;;;23.20;58.40;;;;;;5107239;28;20207;-67
2022/05/14 11:28:08;;;;;;;2.10;0.67;;;23.00;60.20;;;;;;5107302;28;20570;-67
2022/05/14 11:30:39;;;;;;;4.50;1.00;;;23.00;60.30;;;;;;5107641;28;20425;-69
2022/05/14 11:33:24;;;;;;;1.77;0.70;;;22.90;61.00;;;;;;5107656;28;20508;-68
2022/05/14 11:35:53;;;;;;;3.23;0.70;;;22.90;60.30;;;;;;5107678;28;21063;-67
2022/05/14 11:38:24;;;;;;;1.93;0.70;;;22.70;63.10;;;;;;5107010;28;20429;-67
2022/05/14 11:41:00;;;;;;;3.17;0.67;;;22.70;61.40;;;;;;5107357;28;20595;-68
2022/05/14 11:43:28;;;;;;;2.00;0.60;;;22.80;59.70;;;;;;5093597;28;20428;-67
2022/05/14 11:46:09;;;;;;;1.83;0.70;;;22.80;58.70;;;;;;5107209;28;20448;-67
2022/05/14 11:48:42;;;;;;;1.70;0.77;;;23.00;58.60;;;;;;5106885;28;20467;-68
2022/05/14 11:51:18;;;;;;;1.60;0.70;;;23.10;59.90;;;;;;5106956;28;20443;-68
2022/05/14 11:53:53;;;;;;;2.90;1.07;;;23.20;60.40;;;;;;5107143;28;20541;-68
2022/05/14 11:56:48;;;;;;;5.40;1.07;;;23.30;60.70;;;;;;5106971;28;20904;-67
2022/05/14 11:59:40;;;;;;;2.90;0.67;;;23.20;61.60;;;;;;5082935;28;20930;-67
2022/05/14 12:02:13;;;;;;;3.20;0.97;;;23.40;60.40;;;;;;5107289;28;20428;-68
2022/05/14 12:04:44;;;;;;;1.80;0.90;;;23.50;59.50;;;;;;5107661;28;20816;-68
2022/05/14 12:07:33;;;;;;;2.90;1.00;;;23.60;60.10;;;;;;5106706;28;20421;-67
2022/05/14 12:10:20;;;;;;;1.90;0.83;;;23.40;59.50;;;;;;5107162;28;20493;-67
2022/05/14 12:12:48;;;;;;;2.00;1.00;;;23.40;59.10;;;;;;5107358;28;20416;-65
2022/05/14 12:15:22;;;;;;;4.03;0.90;;;23.60;59.40;;;;;;5107253;28;20835;-68
2022/05/14 12:17:54;;;;;;;2.03;0.80;;;23.50;60.20;;;;;;5106970;28;20421;-66
2022/05/14 12:20:31;;;;;;;1.87;0.73;;;23.40;62.10;;;;;;5107178;28;20420;-69
2022/05/14 12:23:02;;;;;;;2.13;0.93;;;23.60;60.60;;;;;;5107041;28;20417;-67
2022/05/14 12:25:54;;;;;;;3.30;0.80;;;24.00;58.00;;;;;;5106826;28;20565;-68
2022/05/14 12:28:33;;;;;;;5.53;1.43;;;24.00;57.60;;;;;;5100668;28;20875;-68
2022/05/14 12:34:03;;;;;;;1.50;0.60;;;24.10;57.60;;;;;;5102296;28;20622;-67
2022/05/14 12:36:34;;;;;;;2.13;0.83;;;23.80;58.30;;;;;;5109459;28;20440;-66
2022/05/14 12:39:04;;;;;;;1.70;0.60;;;23.70;58.70;;;;;;5112458;28;20429;-68
2022/05/14 12:41:32;;;;;;;3.37;0.80;;;24.00;59.10;;;;;;5111025;28;20420;-69
2022/05/14 12:44:16;;;;;;;4.10;1.00;;;24.30;61.20;;;;;;5111220;28;20421;-67
2022/05/14 12:46:45;;;;;;;2.10;0.70;;;24.60;57.90;;;;;;5110702;28;20466;-70
2022/05/14 12:49:33;;;;;;;3.10;1.10;;;24.40;59.90;;;;;;5110941;28;20464;-68
2022/05/14 12:52:04;;;;;;;1.40;0.60;;;24.40;58.60;;;;;;5111181;28;20445;-67
2022/05/14 12:54:33;;;;;;;1.80;0.70;;;24.40;59.10;;;;;;5111175;28;20429;-67
2022/05/14 12:57:03;;;;;;;2.57;1.10;;;24.60;58.30;;;;;;5110513;28;20528;-67
2022/05/14 12:59:28;;;;;;;4.37;1.20;;;24.80;56.50;;;;;;5111187;28;20519;-67
2022/05/14 13:02:01;;;;;;;4.87;0.73;;;24.40;58.80;;;;;;5110783;28;20511;-68
2022/05/14 13:04:46;;;;;;;3.03;0.90;;;24.40;58.60;;;;;;5110507;28;20202;-68
2022/05/14 13:07:12;;;;;;;7.10;1.03;;;24.60;56.90;;;;;;5110157;28;20866;-67
2022/05/14 13:09:41;;;;;;;2.00;0.67;;;24.70;56.60;;;;;;5088130;28;20475;-68
2022/05/14 13:12:14;;;;;;;4.00;0.90;;;24.90;55.20;;;;;;5104676;28;20444;-67
2022/05/14 13:14:56;;;;;;;1.93;0.83;;;24.60;57.50;;;;;;5110104;28;20420;-67
2022/05/14 13:17:31;;;;;;;2.23;1.10;;;24.70;58.80;;;;;;5110268;28;20421;-68
2022/05/14 13:19:58;;;;;;;6.43;1.30;;;25.20;55.90;;;;;;5109949;28;20629;-68
2022/05/14 13:23:10;;;;;;;1.97;1.00;;;25.10;53.70;;;;;;5109511;28;20899;-68
2022/05/14 13:25:37;;;;;;;1.40;0.60;;;25.30;53.50;;;;;;5103573;28;20959;-66
2022/05/14 13:28:27;;;;;;;3.27;0.87;;;25.10;53.50;;;;;;5109538;28;20686;-68